sensor_id;sensor_type;location;lat;lon;timestamp;temperature;humidity
3542;DHT22;1785;47.388;8.538;2022-10-31T00:00:55;15.90;99.90
3542;DHT22;1785;47.388;8.538;2022-10-31T00:03:23;15.90;99.90
3542;DHT22;1785;47.388;8.538;2022-10-31T00:05:52;15.70;99.90
3542;DHT22;1785;47.388;8.538;2022-10-31T00:08:19;15.60;99.90
3542;DHT22;1785;47.388;8.538;2022-10-31T00:10:45;15.60;99.90
3542;DHT22;1785;47.388;8.538;2022-10-31T00:13:14;15.70;99.90
3542;DHT22;1785;47.388;8.538;2022-10-31T00:15:40;15.70;99.90
3542;DHT22;1785;47.388;8.538;2022-10-31T00:18:08;15.70;99.90
3542;DHT22;1785;47.388;8.538;2022-10-31T00:20:35;15.60;99.90
3542;DHT22;1785;47.388;8.538;2022-10-31T00:23:02;15.50;99.90
3542;DHT22;1785;47.388;8.538;2022-10-31T00:25:33;15.50;99.90
3542;DHT22;1785;47.388;8.538;2022-10-31T00:28:00;15.50;99.90
3542;DHT22;1785;47.388;8.538;2022-10-31T00:30:27;15.50;99.90
3542;DHT22;1785;47.388;8.538;2022-10-31T00:32:53;15.60;99.90
3542;DHT22;1785;47.388;8.538;2022-10-31T00:35:20;15.60;99.90
3542;DHT22;1785;47.388;8.538;2022-10-31T00:37:47;15.50;99.90
3542;DHT22;1785;47.388;8.538;2022-10-31T00:40:13;15.40;99.90
3542;DHT22;1785;47.388;8.538;2022-10-31T00:42:40;15.50;99.90
3542;DHT22;1785;47.388;8.538;2022-10-31T00:45:08;15.50;99.90
3542;DHT22;1785;47.388;8.538;2022-10-31T00:47:34;15.50;99.90
3542;DHT22;1785;47.388;8.538;2022-10-31T00:50:01;15.50;99.90
3542;DHT22;1785;47.388;8.538;2022-10-31T00:52:27;15.40;99.90
3542;DHT22;1785;47.388;8.538;2022-10-31T00:54:54;15.40;99.90
3542;DHT22;1785;47.388;8.538;2022-10-31T00:57:20;15.40;99.90
3542;DHT22;1785;47.388;8.538;2022-10-31T00:59:46;15.40;99.90
3542;DHT22;1785;47.388;8.538;2022-10-31T01:02:13;15.40;99.90
3542;DHT22;1785;47.388;8.538;2022-10-31T01:04:40;15.30;99.90
3542;DHT22;1785;47.388;8.538;2022-10-31T01:07:06;15.30;99.90
3542;DHT22;1785;47.388;8.538;2022-10-31T01:09:33;15.30;99.90
3542;DHT22;1785;47.388;8.538;2022-10-31T01:12:00;15.30;99.90
3542;DHT22;1785;47.388;8.538;2022-10-31T01:14:27;15.30;99.90
3542;DHT22;1785;47.388;8.538;2022-10-31T01:16:53;15.30;99.90
3542;DHT22;1785;47.388;8.538;2022-10-31T01:19:19;15.30;99.90
3542;DHT22;1785;47.388;8.538;2022-10-31T01:21:46;15.20;99.90
3542;DHT22;1785;47.388;8.538;2022-10-31T01:24:15;15.20;99.90
3542;DHT22;1785;47.388;8.538;2022-10-31T01:26:42;15.30;99.90
3542;DHT22;1785;47.388;8.538;2022-10-31T01:29:09;15.30;99.90
3542;DHT22;1785;47.388;8.538;2022-10-31T01:31:37;15.30;99.90
3542;DHT22;1785;47.388;8.538;2022-10-31T01:34:05;15.20;99.90
3542;DHT22;1785;47.388;8.538;2022-10-31T01:36:34;15.30;99.90
3542;DHT22;1785;47.388;8.538;2022-10-31T01:39:03;15.20;99.90
3542;DHT22;1785;47.388;8.538;2022-10-31T01:41:31;15.10;99.90
3542;DHT22;1785;47.388;8.538;2022-10-31T01:44:00;14.90;99.90
3542;DHT22;1785;47.388;8.538;2022-10-31T01:46:30;14.70;99.90
3542;DHT22;1785;47.388;8.538;2022-10-31T01:49:00;14.80;99.90
3542;DHT22;1785;47.388;8.538;2022-10-31T01:51:30;14.90;99.90
3542;DHT22;1785;47.388;8.538;2022-10-31T01:54:02;14.90;99.90
3542;DHT22;1785;47.388;8.538;2022-10-31T01:56:31;14.90;99.90
3542;DHT22;1785;47.388;8.538;2022-10-31T01:58:59;14.90;99.90
3542;DHT22;1785;47.388;8.538;2022-10-31T02:01:27;14.80;99.90
3542;DHT22;1785;47.388;8.538;2022-10-31T02:03:55;14.90;99.90
3542;DHT22;1785;47.388;8.538;2022-10-31T02:06:27;15.00;99.90
3542;DHT22;1785;47.388;8.538;2022-10-31T02:08:59;14.80;99.90
3542;DHT22;1785;47.388;8.538;2022-10-31T02:11:28;14.70;99.90
3542;DHT22;1785;47.388;8.538;2022-10-31T02:13:54;14.70;99.90
3542;DHT22;1785;47.388;8.538;2022-10-31T02:16:21;14.70;99.90
3542;DHT22;1785;47.388;8.538;2022-10-31T02:18:49;14.80;99.90
3542;DHT22;1785;47.388;8.538;2022-10-31T02:21:19;14.80;99.90
3542;DHT22;1785;47.388;8.538;2022-10-31T02:24:12;14.80;99.90
3542;DHT22;1785;47.388;8.538;2022-10-31T02:27:02;14.80;99.90
3542;DHT22;1785;47.388;8.538;2022-10-31T02:32:34;14.70;99.90
3542;DHT22;1785;47.388;8.538;2022-10-31T02:35:09;14.50;99.90
3542;DHT22;1785;47.388;8.538;2022-10-31T02:37:40;14.40;99.90
3542;DHT22;1785;47.388;8.538;2022-10-31T02:40:14;14.50;99.90
3542;DHT22;1785;47.388;8.538;2022-10-31T02:42:48;14.50;99.90
3542;DHT22;1785;47.388;8.538;2022-10-31T02:45:22;14.60;99.90
3542;DHT22;1785;47.388;8.538;2022-10-31T02:47:54;14.50;99.90
3542;DHT22;1785;47.388;8.538;2022-10-31T02:50:23;14.30;99.90
3542;DHT22;1785;47.388;8.538;2022-10-31T02:52:52;14.20;99.90
3542;DHT22;1785;47.388;8.538;2022-10-31T02:55:44;14.00;99.90
3542;DHT22;1785;47.388;8.538;2022-10-31T02:58:15;14.20;99.90
3542;DHT22;1785;47.388;8.538;2022-10-31T03:00:48;14.30;99.90
3542;DHT22;1785;47.388;8.538;2022-10-31T03:03:20;14.30;99.90
3542;DHT22;1785;47.388;8.538;2022-10-31T03:05:54;14.40;99.90
3542;DHT22;1785;47.388;8.538;2022-10-31T03:08:23;14.00;99.90
3542;DHT22;1785;47.388;8.538;2022-10-31T03:10:54;14.00;99.90
3542;DHT22;1785;47.388;8.538;2022-10-31T03:13:28;14.10;99.90
3542;DHT22;1785;47.388;8.538;2022-10-31T03:16:04;14.30;99.90
3542;DHT22;1785;47.388;8.538;2022-10-31T03:18:33;14.40;99.90
3542;DHT22;1785;47.388;8.538;2022-10-31T03:21:04;14.40;99.90
3542;DHT22;1785;47.388;8.538;2022-10-31T03:23:33;14.40;99.90
3542;DHT22;1785;47.388;8.538;2022-10-31T03:26:04;14.40;99.90
3542;DHT22;1785;47.388;8.538;2022-10-31T03:28:36;14.40;99.90
3542;DHT22;1785;47.388;8.538;2022-10-31T03:31:05;14.40;99.90
3542;DHT22;1785;47.388;8.538;2022-10-31T03:33:36;14.40;99.90
3542;DHT22;1785;47.388;8.538;2022-10-31T03:36:04;14.40;99.90
3542;DHT22;1785;47.388;8.538;2022-10-31T03:38:59;14.40;99.90
3542;DHT22;1785;47.388;8.538;2022-10-31T03:41:44;14.30;99.90
3542;DHT22;1785;47.388;8.538;2022-10-31T03:44:14;14.10;99.90
3542;DHT22;1785;47.388;8.538;2022-10-31T03:46:42;13.70;99.90
3542;DHT22;1785;47.388;8.538;2022-10-31T03:49:28;13.50;99.90
3542;DHT22;1785;47.388;8.538;2022-10-31T03:52:04;13.70;99.90
3542;DHT22;1785;47.388;8.538;2022-10-31T03:54:38;13.70;99.90
3542;DHT22;1785;47.388;8.538;2022-10-31T03:57:11;13.80;99.90
3542;DHT22;1785;47.388;8.538;2022-10-31T03:59:42;13.90;99.90
3542;DHT22;1785;47.388;8.538;2022-10-31T04:02:14;13.90;99.90
3542;DHT22;1785;47.388;8.538;2022-10-31T04:04:43;13.90;99.90
3542;DHT22;1785;47.388;8.538;2022-10-31T04:07:11;13.90;99.90
3542;DHT22;1785;47.388;8.538;2022-10-31T04:09:41;13.90;99.90
3542;DHT22;1785;47.388;8.538;2022-10-31T04:12:09;13.70;99.90
3542;DHT22;1785;47.388;8.538;2022-10-31T04:14:42;13.80;99.90
3542;DHT22;1785;47.388;8.538;2022-10-31T04:17:13;13.60;99.90
3542;DHT22;1785;47.388;8.538;2022-10-31T04:19:41;13.50;99.90
3542;DHT22;1785;47.388;8.538;2022-10-31T04:22:08;13.50;99.90
3542;DHT22;1785;47.388;8.538;2022-10-31T04:24:34;13.50;99.90
3542;DHT22;1785;47.388;8.538;2022-10-31T04:27:02;13.60;99.90
3542;DHT22;1785;47.388;8.538;2022-10-31T04:29:29;13.60;99.90
3542;DHT22;1785;47.388;8.538;2022-10-31T04:32:00;13.60;99.90
3542;DHT22;1785;47.388;8.538;2022-10-31T04:34:27;13.40;99.90
3542;DHT22;1785;47.388;8.538;2022-10-31T04:36:53;13.40;99.90
3542;DHT22;1785;47.388;8.538;2022-10-31T04:39:20;13.30;99.90
3542;DHT22;1785;47.388;8.538;2022-10-31T04:41:47;13.50;99.90
3542;DHT22;1785;47.388;8.538;2022-10-31T04:44:13;13.00;99.90
3542;DHT22;1785;47.388;8.538;2022-10-31T04:46:39;13.00;99.90
3542;DHT22;1785;47.388;8.538;2022-10-31T04:49:06;13.10;99.90
3542;DHT22;1785;47.388;8.538;2022-10-31T04:51:32;13.10;99.90
3542;DHT22;1785;47.388;8.538;2022-10-31T04:53:59;13.20;99.90
3542;DHT22;1785;47.388;8.538;2022-10-31T04:56:26;13.30;99.90
3542;DHT22;1785;47.388;8.538;2022-10-31T04:58:52;13.30;99.90
3542;DHT22;1785;47.388;8.538;2022-10-31T05:01:19;13.10;99.90
3542;DHT22;1785;47.388;8.538;2022-10-31T05:03:46;13.10;99.90
3542;DHT22;1785;47.388;8.538;2022-10-31T05:06:12;13.20;99.90
3542;DHT22;1785;47.388;8.538;2022-10-31T05:08:38;13.00;99.90
3542;DHT22;1785;47.388;8.538;2022-10-31T05:11:06;12.90;99.90
3542;DHT22;1785;47.388;8.538;2022-10-31T05:13:32;12.60;99.90
3542;DHT22;1785;47.388;8.538;2022-10-31T05:15:59;12.40;99.90
3542;DHT22;1785;47.388;8.538;2022-10-31T05:18:27;12.70;99.90
3542;DHT22;1785;47.388;8.538;2022-10-31T05:20:54;12.90;99.90
3542;DHT22;1785;47.388;8.538;2022-10-31T05:23:20;13.20;99.90
3542;DHT22;1785;47.388;8.538;2022-10-31T05:25:47;14.10;99.90
3542;DHT22;1785;47.388;8.538;2022-10-31T05:28:14;14.40;99.90
3542;DHT22;1785;47.388;8.538;2022-10-31T05:30:42;14.90;99.90
3542;DHT22;1785;47.388;8.538;2022-10-31T05:33:08;14.60;99.90
3542;DHT22;1785;47.388;8.538;2022-10-31T05:35:35;14.40;99.90
3542;DHT22;1785;47.388;8.538;2022-10-31T05:38:02;14.30;99.90
3542;DHT22;1785;47.388;8.538;2022-10-31T05:40:28;14.00;99.90
3542;DHT22;1785;47.388;8.538;2022-10-31T05:42:56;14.00;99.90
3542;DHT22;1785;47.388;8.538;2022-10-31T05:45:24;13.60;99.90
3542;DHT22;1785;47.388;8.538;2022-10-31T05:47:52;13.50;99.90
3542;DHT22;1785;47.388;8.538;2022-10-31T05:50:19;13.50;99.90
3542;DHT22;1785;47.388;8.538;2022-10-31T05:52:55;13.40;99.90
3542;DHT22;1785;47.388;8.538;2022-10-31T05:55:21;13.50;99.90
3542;DHT22;1785;47.388;8.538;2022-10-31T05:57:48;13.50;99.90
3542;DHT22;1785;47.388;8.538;2022-10-31T06:00:15;13.40;99.90
3542;DHT22;1785;47.388;8.538;2022-10-31T06:02:42;13.00;99.90
3542;DHT22;1785;47.388;8.538;2022-10-31T06:05:10;12.80;99.90
3542;DHT22;1785;47.388;8.538;2022-10-31T06:07:37;12.80;99.90
3542;DHT22;1785;47.388;8.538;2022-10-31T06:10:07;12.60;99.90
3542;DHT22;1785;47.388;8.538;2022-10-31T06:12:35;12.50;99.90
3542;DHT22;1785;47.388;8.538;2022-10-31T06:15:05;12.40;99.90
3542;DHT22;1785;47.388;8.538;2022-10-31T06:17:32;12.50;99.90
3542;DHT22;1785;47.388;8.538;2022-10-31T06:19:59;12.60;99.90
3542;DHT22;1785;47.388;8.538;2022-10-31T06:22:26;12.30;99.90
3542;DHT22;1785;47.388;8.538;2022-10-31T06:24:52;11.90;99.90
3542;DHT22;1785;47.388;8.538;2022-10-31T06:27:19;12.00;99.90
3542;DHT22;1785;47.388;8.538;2022-10-31T06:29:45;12.10;99.90
3542;DHT22;1785;47.388;8.538;2022-10-31T06:32:13;12.00;99.90
3542;DHT22;1785;47.388;8.538;2022-10-31T06:34:40;11.80;99.90
3542;DHT22;1785;47.388;8.538;2022-10-31T06:37:09;11.40;99.90
3542;DHT22;1785;47.388;8.538;2022-10-31T06:39:35;11.40;99.90
3542;DHT22;1785;47.388;8.538;2022-10-31T06:42:03;11.70;99.90
3542;DHT22;1785;47.388;8.538;2022-10-31T06:44:30;11.60;99.90
3542;DHT22;1785;47.388;8.538;2022-10-31T06:46:57;11.10;99.90
3542;DHT22;1785;47.388;8.538;2022-10-31T06:49:23;10.80;99.90
3542;DHT22;1785;47.388;8.538;2022-10-31T06:51:51;10.80;99.90
3542;DHT22;1785;47.388;8.538;2022-10-31T06:54:18;10.70;99.90
3542;DHT22;1785;47.388;8.538;2022-10-31T06:56:46;10.80;99.90
3542;DHT22;1785;47.388;8.538;2022-10-31T06:59:13;10.90;99.90
3542;DHT22;1785;47.388;8.538;2022-10-31T07:01:40;11.10;99.90
3542;DHT22;1785;47.388;8.538;2022-10-31T07:04:08;11.20;99.90
3542;DHT22;1785;47.388;8.538;2022-10-31T07:06:35;11.10;99.90
3542;DHT22;1785;47.388;8.538;2022-10-31T07:09:02;11.10;99.90
3542;DHT22;1785;47.388;8.538;2022-10-31T07:11:29;11.10;99.90
3542;DHT22;1785;47.388;8.538;2022-10-31T07:13:57;11.00;99.90
3542;DHT22;1785;47.388;8.538;2022-10-31T07:16:24;11.30;99.90
3542;DHT22;1785;47.388;8.538;2022-10-31T07:18:52;11.80;99.90
3542;DHT22;1785;47.388;8.538;2022-10-31T07:21:18;12.30;99.90
3542;DHT22;1785;47.388;8.538;2022-10-31T07:23:47;12.60;99.90
3542;DHT22;1785;47.388;8.538;2022-10-31T07:26:14;12.50;99.90
3542;DHT22;1785;47.388;8.538;2022-10-31T07:28:42;12.20;99.90
3542;DHT22;1785;47.388;8.538;2022-10-31T07:31:09;12.20;99.90
3542;DHT22;1785;47.388;8.538;2022-10-31T07:33:38;12.60;99.90
3542;DHT22;1785;47.388;8.538;2022-10-31T07:36:06;12.90;99.90
3542;DHT22;1785;47.388;8.538;2022-10-31T07:38:32;13.10;99.90
3542;DHT22;1785;47.388;8.538;2022-10-31T07:40:59;13.20;99.90
3542;DHT22;1785;47.388;8.538;2022-10-31T07:43:26;12.90;99.90
3542;DHT22;1785;47.388;8.538;2022-10-31T07:45:54;12.50;99.90
3542;DHT22;1785;47.388;8.538;2022-10-31T07:48:24;12.40;99.90
3542;DHT22;1785;47.388;8.538;2022-10-31T07:50:51;12.40;99.90
3542;DHT22;1785;47.388;8.538;2022-10-31T07:53:19;12.50;99.90
3542;DHT22;1785;47.388;8.538;2022-10-31T07:55:50;12.80;99.90
3542;DHT22;1785;47.388;8.538;2022-10-31T07:58:17;13.10;99.90
3542;DHT22;1785;47.388;8.538;2022-10-31T08:00:45;13.20;99.90
3542;DHT22;1785;47.388;8.538;2022-10-31T08:03:16;13.30;99.90
3542;DHT22;1785;47.388;8.538;2022-10-31T08:05:46;13.30;99.90
3542;DHT22;1785;47.388;8.538;2022-10-31T08:08:13;13.40;99.90
3542;DHT22;1785;47.388;8.538;2022-10-31T08:10:41;13.50;99.90
3542;DHT22;1785;47.388;8.538;2022-10-31T08:13:11;13.70;99.90
3542;DHT22;1785;47.388;8.538;2022-10-31T08:15:39;13.80;99.90
3542;DHT22;1785;47.388;8.538;2022-10-31T08:18:12;13.80;99.90
3542;DHT22;1785;47.388;8.538;2022-10-31T08:20:40;13.80;99.90
3542;DHT22;1785;47.388;8.538;2022-10-31T08:23:08;13.70;99.90
3542;DHT22;1785;47.388;8.538;2022-10-31T08:25:36;13.60;99.90
3542;DHT22;1785;47.388;8.538;2022-10-31T08:28:03;13.60;99.90
3542;DHT22;1785;47.388;8.538;2022-10-31T08:30:31;13.80;99.90
3542;DHT22;1785;47.388;8.538;2022-10-31T08:33:01;14.00;99.90
3542;DHT22;1785;47.388;8.538;2022-10-31T08:35:27;13.20;99.90
3542;DHT22;1785;47.388;8.538;2022-10-31T08:37:55;12.70;99.90
3542;DHT22;1785;47.388;8.538;2022-10-31T08:40:23;12.80;99.90
3542;DHT22;1785;47.388;8.538;2022-10-31T08:42:58;13.10;99.90
3542;DHT22;1785;47.388;8.538;2022-10-31T08:45:26;13.10;99.90
3542;DHT22;1785;47.388;8.538;2022-10-31T08:47:57;12.90;99.90
3542;DHT22;1785;47.388;8.538;2022-10-31T08:50:24;13.00;99.90
3542;DHT22;1785;47.388;8.538;2022-10-31T08:52:51;12.70;99.90
3542;DHT22;1785;47.388;8.538;2022-10-31T08:55:19;12.40;99.90
3542;DHT22;1785;47.388;8.538;2022-10-31T08:57:45;12.60;99.90
3542;DHT22;1785;47.388;8.538;2022-10-31T09:00:13;12.30;99.90
3542;DHT22;1785;47.388;8.538;2022-10-31T09:02:39;12.40;99.90
3542;DHT22;1785;47.388;8.538;2022-10-31T09:05:06;12.50;99.90
3542;DHT22;1785;47.388;8.538;2022-10-31T09:07:33;12.90;99.90
3542;DHT22;1785;47.388;8.538;2022-10-31T09:10:00;13.40;99.90
3542;DHT22;1785;47.388;8.538;2022-10-31T09:12:27;13.70;99.90
3542;DHT22;1785;47.388;8.538;2022-10-31T09:14:53;13.90;99.90
3542;DHT22;1785;47.388;8.538;2022-10-31T09:17:20;14.10;99.90
3542;DHT22;1785;47.388;8.538;2022-10-31T09:19:47;14.30;99.90
3542;DHT22;1785;47.388;8.538;2022-10-31T09:22:13;14.40;99.90
3542;DHT22;1785;47.388;8.538;2022-10-31T09:24:40;14.50;99.90
3542;DHT22;1785;47.388;8.538;2022-10-31T09:27:07;14.00;99.90
3542;DHT22;1785;47.388;8.538;2022-10-31T09:29:35;13.80;99.90
3542;DHT22;1785;47.388;8.538;2022-10-31T09:32:02;14.10;99.90
3542;DHT22;1785;47.388;8.538;2022-10-31T09:34:30;14.20;99.90
3542;DHT22;1785;47.388;8.538;2022-10-31T09:36:58;13.90;99.90
3542;DHT22;1785;47.388;8.538;2022-10-31T09:39:24;14.10;99.90
3542;DHT22;1785;47.388;8.538;2022-10-31T09:42:02;14.40;99.90
3542;DHT22;1785;47.388;8.538;2022-10-31T09:44:43;14.00;99.90
3542;DHT22;1785;47.388;8.538;2022-10-31T09:47:17;13.90;99.90
3542;DHT22;1785;47.388;8.538;2022-10-31T09:50:00;14.10;99.90
3542;DHT22;1785;47.388;8.538;2022-10-31T09:52:32;14.00;99.90
3542;DHT22;1785;47.388;8.538;2022-10-31T09:55:04;14.10;99.90
3542;DHT22;1785;47.388;8.538;2022-10-31T09:57:33;14.40;99.90
3542;DHT22;1785;47.388;8.538;2022-10-31T10:00:06;14.70;99.90
3542;DHT22;1785;47.388;8.538;2022-10-31T10:02:38;14.30;99.90
3542;DHT22;1785;47.388;8.538;2022-10-31T10:05:12;14.10;99.90
3542;DHT22;1785;47.388;8.538;2022-10-31T10:07:49;14.30;99.90
3542;DHT22;1785;47.388;8.538;2022-10-31T10:10:25;14.40;99.90
3542;DHT22;1785;47.388;8.538;2022-10-31T10:13:14;14.60;99.90
3542;DHT22;1785;47.388;8.538;2022-10-31T10:15:56;14.30;99.90
3542;DHT22;1785;47.388;8.538;2022-10-31T10:18:36;14.00;99.90
3542;DHT22;1785;47.388;8.538;2022-10-31T10:21:18;13.90;99.90
3542;DHT22;1785;47.388;8.538;2022-10-31T10:23:54;13.60;99.90
3542;DHT22;1785;47.388;8.538;2022-10-31T10:26:33;13.90;99.90
3542;DHT22;1785;47.388;8.538;2022-10-31T10:29:03;14.20;99.90
3542;DHT22;1785;47.388;8.538;2022-10-31T10:31:39;14.40;99.90
3542;DHT22;1785;47.388;8.538;2022-10-31T10:34:11;14.40;99.90
3542;DHT22;1785;47.388;8.538;2022-10-31T10:36:42;14.60;99.90
3542;DHT22;1785;47.388;8.538;2022-10-31T10:39:14;14.60;99.90
3542;DHT22;1785;47.388;8.538;2022-10-31T10:41:45;14.50;99.90
3542;DHT22;1785;47.388;8.538;2022-10-31T10:44:13;14.40;99.90
3542;DHT22;1785;47.388;8.538;2022-10-31T10:46:43;14.70;99.90
3542;DHT22;1785;47.388;8.538;2022-10-31T10:49:35;14.90;99.90
3542;DHT22;1785;47.388;8.538;2022-10-31T10:52:12;15.10;99.90
3542;DHT22;1785;47.388;8.538;2022-10-31T10:54:54;15.40;99.90
3542;DHT22;1785;47.388;8.538;2022-10-31T10:57:32;15.50;99.90
3542;DHT22;1785;47.388;8.538;2022-10-31T11:00:21;15.10;99.90
3542;DHT22;1785;47.388;8.538;2022-10-31T11:02:49;14.80;99.90
3542;DHT22;1785;47.388;8.538;2022-10-31T11:05:24;14.80;99.90
3542;DHT22;1785;47.388;8.538;2022-10-31T11:07:51;15.10;99.90
3542;DHT22;1785;47.388;8.538;2022-10-31T11:10:18;15.10;99.90
3542;DHT22;1785;47.388;8.538;2022-10-31T11:12:56;15.20;99.90
3542;DHT22;1785;47.388;8.538;2022-10-31T11:15:26;15.60;99.90
3542;DHT22;1785;47.388;8.538;2022-10-31T11:17:55;15.50;99.90
3542;DHT22;1785;47.388;8.538;2022-10-31T11:20:34;15.60;99.90
3542;DHT22;1785;47.388;8.538;2022-10-31T11:23:15;15.70;99.90
3542;DHT22;1785;47.388;8.538;2022-10-31T11:25:49;15.70;99.90
3542;DHT22;1785;47.388;8.538;2022-10-31T11:28:16;15.90;99.90
3542;DHT22;1785;47.388;8.538;2022-10-31T11:30:45;16.10;99.90
3542;DHT22;1785;47.388;8.538;2022-10-31T11:33:18;15.90;99.90
3542;DHT22;1785;47.388;8.538;2022-10-31T11:35:46;15.50;99.90
3542;DHT22;1785;47.388;8.538;2022-10-31T11:38:17;15.50;99.90
3542;DHT22;1785;47.388;8.538;2022-10-31T11:40:52;15.60;99.90
3542;DHT22;1785;47.388;8.538;2022-10-31T11:43:20;15.40;99.90
3542;DHT22;1785;47.388;8.538;2022-10-31T11:45:50;15.30;99.90
3542;DHT22;1785;47.388;8.538;2022-10-31T11:48:19;15.20;99.90
3542;DHT22;1785;47.388;8.538;2022-10-31T11:50:51;15.20;99.90
3542;DHT22;1785;47.388;8.538;2022-10-31T11:53:20;15.50;99.90
3542;DHT22;1785;47.388;8.538;2022-10-31T11:56:03;15.70;99.90
3542;DHT22;1785;47.388;8.538;2022-10-31T11:58:30;15.90;99.90
3542;DHT22;1785;47.388;8.538;2022-10-31T12:00:57;16.20;99.90
3542;DHT22;1785;47.388;8.538;2022-10-31T12:03:37;16.50;99.90
3542;DHT22;1785;47.388;8.538;2022-10-31T12:06:08;16.40;99.90
3542;DHT22;1785;47.388;8.538;2022-10-31T12:08:38;16.40;99.90
3542;DHT22;1785;47.388;8.538;2022-10-31T12:11:11;16.60;99.90
3542;DHT22;1785;47.388;8.538;2022-10-31T12:13:47;16.90;99.90
3542;DHT22;1785;47.388;8.538;2022-10-31T12:16:20;17.00;99.90
3542;DHT22;1785;47.388;8.538;2022-10-31T12:18:58;16.80;99.90
3542;DHT22;1785;47.388;8.538;2022-10-31T12:21:39;16.90;99.90
3542;DHT22;1785;47.388;8.538;2022-10-31T12:24:18;16.60;99.90
3542;DHT22;1785;47.388;8.538;2022-10-31T12:26:53;16.70;99.90
3542;DHT22;1785;47.388;8.538;2022-10-31T12:29:36;16.70;99.90
3542;DHT22;1785;47.388;8.538;2022-10-31T12:32:24;16.80;99.90
3542;DHT22;1785;47.388;8.538;2022-10-31T12:35:08;17.20;99.90
3542;DHT22;1785;47.388;8.538;2022-10-31T12:37:46;17.40;99.90
3542;DHT22;1785;47.388;8.538;2022-10-31T12:40:36;17.50;99.90
3542;DHT22;1785;47.388;8.538;2022-10-31T12:43:16;17.50;99.90
3542;DHT22;1785;47.388;8.538;2022-10-31T12:45:52;17.50;99.90
3542;DHT22;1785;47.388;8.538;2022-10-31T12:51:19;18.00;99.90
3542;DHT22;1785;47.388;8.538;2022-10-31T12:53:58;17.90;99.90
3542;DHT22;1785;47.388;8.538;2022-10-31T12:56:38;18.00;99.90
3542;DHT22;1785;47.388;8.538;2022-10-31T12:59:19;17.90;99.90
3542;DHT22;1785;47.388;8.538;2022-10-31T13:01:49;18.10;99.90
3542;DHT22;1785;47.388;8.538;2022-10-31T13:04:23;17.90;99.90
3542;DHT22;1785;47.388;8.538;2022-10-31T13:06:57;17.60;99.90
3542;DHT22;1785;47.388;8.538;2022-10-31T13:09:31;17.60;99.90
3542;DHT22;1785;47.388;8.538;2022-10-31T13:12:04;17.90;99.90
3542;DHT22;1785;47.388;8.538;2022-10-31T13:14:38;18.00;99.90
3542;DHT22;1785;47.388;8.538;2022-10-31T13:17:06;17.90;99.90
3542;DHT22;1785;47.388;8.538;2022-10-31T13:19:37;17.80;99.90
3542;DHT22;1785;47.388;8.538;2022-10-31T13:22:29;17.90;99.90
3542;DHT22;1785;47.388;8.538;2022-10-31T13:25:02;18.00;99.90
3542;DHT22;1785;47.388;8.538;2022-10-31T13:27:39;18.20;99.90
3542;DHT22;1785;47.388;8.538;2022-10-31T13:30:14;18.20;99.90
3542;DHT22;1785;47.388;8.538;2022-10-31T13:32:43;18.20;99.90
3542;DHT22;1785;47.388;8.538;2022-10-31T13:35:16;18.30;99.90
3542;DHT22;1785;47.388;8.538;2022-10-31T13:37:52;18.40;99.90
3542;DHT22;1785;47.388;8.538;2022-10-31T13:40:29;18.40;99.90
3542;DHT22;1785;47.388;8.538;2022-10-31T13:43:02;18.20;99.90
3542;DHT22;1785;47.388;8.538;2022-10-31T13:45:32;18.20;99.90
3542;DHT22;1785;47.388;8.538;2022-10-31T13:48:00;18.30;99.90
3542;DHT22;1785;47.388;8.538;2022-10-31T13:50:29;18.40;99.90
3542;DHT22;1785;47.388;8.538;2022-10-31T13:53:18;18.30;99.90
3542;DHT22;1785;47.388;8.538;2022-10-31T13:55:47;18.30;99.90
3542;DHT22;1785;47.388;8.538;2022-10-31T13:58:27;18.20;99.90
3542;DHT22;1785;47.388;8.538;2022-10-31T14:01:12;18.20;99.90
3542;DHT22;1785;47.388;8.538;2022-10-31T14:03:40;18.40;99.90
3542;DHT22;1785;47.388;8.538;2022-10-31T14:06:10;18.40;99.90
3542;DHT22;1785;47.388;8.538;2022-10-31T14:08:46;18.50;99.90
3542;DHT22;1785;47.388;8.538;2022-10-31T14:11:20;18.50;99.90
3542;DHT22;1785;47.388;8.538;2022-10-31T14:13:49;18.40;99.90
3542;DHT22;1785;47.388;8.538;2022-10-31T14:16:20;18.40;99.90
3542;DHT22;1785;47.388;8.538;2022-10-31T14:18:57;18.40;99.90
3542;DHT22;1785;47.388;8.538;2022-10-31T14:21:27;18.50;99.90
3542;DHT22;1785;47.388;8.538;2022-10-31T14:23:56;18.30;99.90
3542;DHT22;1785;47.388;8.538;2022-10-31T14:26:34;18.40;99.90
3542;DHT22;1785;47.388;8.538;2022-10-31T14:31:53;18.60;99.90
3542;DHT22;1785;47.388;8.538;2022-10-31T14:34:24;18.50;99.90
3542;DHT22;1785;47.388;8.538;2022-10-31T14:37:21;18.50;99.90
3542;DHT22;1785;47.388;8.538;2022-10-31T14:40:07;18.40;99.90
3542;DHT22;1785;47.388;8.538;2022-10-31T14:42:49;18.40;99.90
3542;DHT22;1785;47.388;8.538;2022-10-31T14:45:27;18.40;99.90
3542;DHT22;1785;47.388;8.538;2022-10-31T14:48:06;18.40;99.90
3542;DHT22;1785;47.388;8.538;2022-10-31T14:50:44;18.40;99.90
3542;DHT22;1785;47.388;8.538;2022-10-31T14:53:17;18.40;99.90
3542;DHT22;1785;47.388;8.538;2022-10-31T14:55:48;18.60;99.90
3542;DHT22;1785;47.388;8.538;2022-10-31T14:58:20;18.60;99.90
3542;DHT22;1785;47.388;8.538;2022-10-31T15:00:48;18.50;99.90
3542;DHT22;1785;47.388;8.538;2022-10-31T15:03:16;18.60;99.90
3542;DHT22;1785;47.388;8.538;2022-10-31T15:05:47;18.60;99.90
3542;DHT22;1785;47.388;8.538;2022-10-31T15:08:27;18.50;99.90
3542;DHT22;1785;47.388;8.538;2022-10-31T15:10:56;18.40;99.90
3542;DHT22;1785;47.388;8.538;2022-10-31T15:13:22;18.40;99.90
3542;DHT22;1785;47.388;8.538;2022-10-31T15:15:50;18.40;99.90
3542;DHT22;1785;47.388;8.538;2022-10-31T15:18:21;18.50;99.90
3542;DHT22;1785;47.388;8.538;2022-10-31T15:20:48;18.50;99.90
3542;DHT22;1785;47.388;8.538;2022-10-31T15:23:20;18.40;99.90
3542;DHT22;1785;47.388;8.538;2022-10-31T15:25:47;18.40;99.90
3542;DHT22;1785;47.388;8.538;2022-10-31T15:28:21;18.40;99.90
3542;DHT22;1785;47.388;8.538;2022-10-31T15:30:52;18.40;99.90
3542;DHT22;1785;47.388;8.538;2022-10-31T15:33:21;18.40;99.90
3542;DHT22;1785;47.388;8.538;2022-10-31T15:35:55;18.30;99.90
3542;DHT22;1785;47.388;8.538;2022-10-31T15:38:22;18.40;99.90
3542;DHT22;1785;47.388;8.538;2022-10-31T15:40:57;18.40;99.90
3542;DHT22;1785;47.388;8.538;2022-10-31T15:43:27;18.40;99.90
3542;DHT22;1785;47.388;8.538;2022-10-31T15:45:56;18.50;99.90
3542;DHT22;1785;47.388;8.538;2022-10-31T15:48:24;18.50;99.90
3542;DHT22;1785;47.388;8.538;2022-10-31T15:50:53;18.40;99.90
3542;DHT22;1785;47.388;8.538;2022-10-31T15:53:24;18.40;99.90
3542;DHT22;1785;47.388;8.538;2022-10-31T15:55:56;18.30;99.90
3542;DHT22;1785;47.388;8.538;2022-10-31T15:58:25;18.20;99.90
3542;DHT22;1785;47.388;8.538;2022-10-31T16:00:59;18.20;99.90
3542;DHT22;1785;47.388;8.538;2022-10-31T16:03:28;18.10;99.90
3542;DHT22;1785;47.388;8.538;2022-10-31T16:05:56;18.10;99.90
3542;DHT22;1785;47.388;8.538;2022-10-31T16:08:24;18.10;99.90
3542;DHT22;1785;47.388;8.538;2022-10-31T16:10:52;18.10;99.90
3542;DHT22;1785;47.388;8.538;2022-10-31T16:13:22;18.10;99.90
3542;DHT22;1785;47.388;8.538;2022-10-31T16:15:53;18.00;99.90
3542;DHT22;1785;47.388;8.538;2022-10-31T16:18:20;18.00;99.90
3542;DHT22;1785;47.388;8.538;2022-10-31T16:20:49;17.90;99.90
3542;DHT22;1785;47.388;8.538;2022-10-31T16:23:19;17.90;99.90
3542;DHT22;1785;47.388;8.538;2022-10-31T16:25:47;17.90;99.90
3542;DHT22;1785;47.388;8.538;2022-10-31T16:28:17;17.90;99.90
3542;DHT22;1785;47.388;8.538;2022-10-31T16:30:45;17.80;99.90
3542;DHT22;1785;47.388;8.538;2022-10-31T16:33:28;17.80;99.90